sensor_id;sensor_type;location;lat;lon;timestamp;temperature;humidity
14850;DHT22;7517;48.400;11.770;2022-12-10T00:01:22;7.90;72.60
14850;DHT22;7517;48.400;11.770;2022-12-10T00:03:50;8.00;72.60
14850;DHT22;7517;48.400;11.770;2022-12-10T00:06:21;7.90;72.50
14850;DHT22;7517;48.400;11.770;2022-12-10T00:08:49;8.00;72.60
14850;DHT22;7517;48.400;11.770;2022-12-10T00:11:18;7.90;72.30
14850;DHT22;7517;48.400;11.770;2022-12-10T00:13:48;8.00;72.30
14850;DHT22;7517;48.400;11.770;2022-12-10T00:16:19;7.90;72.20
14850;DHT22;7517;48.400;11.770;2022-12-10T00:18:48;7.90;72.30
14850;DHT22;7517;48.400;11.770;2022-12-10T00:21:17;7.90;72.30
14850;DHT22;7517;48.400;11.770;2022-12-10T00:23:46;7.90;72.30
14850;DHT22;7517;48.400;11.770;2022-12-10T00:26:17;7.90;72.30
14850;DHT22;7517;48.400;11.770;2022-12-10T00:28:48;7.90;72.30
14850;DHT22;7517;48.400;11.770;2022-12-10T00:31:17;7.90;72.40
14850;DHT22;7517;48.400;11.770;2022-12-10T00:33:46;7.90;72.40
14850;DHT22;7517;48.400;11.770;2022-12-10T00:36:15;7.90;72.30
14850;DHT22;7517;48.400;11.770;2022-12-10T00:38:45;7.90;72.30
14850;DHT22;7517;48.400;11.770;2022-12-10T00:41:13;7.80;72.30
14850;DHT22;7517;48.400;11.770;2022-12-10T00:43:41;7.90;72.40
14850;DHT22;7517;48.400;11.770;2022-12-10T00:46:10;7.90;72.40
14850;DHT22;7517;48.400;11.770;2022-12-10T00:48:38;7.80;72.40
14850;DHT22;7517;48.400;11.770;2022-12-10T00:51:07;7.90;72.40
14850;DHT22;7517;48.400;11.770;2022-12-10T00:53:37;7.80;72.40
14850;DHT22;7517;48.400;11.770;2022-12-10T00:56:07;7.90;72.40
14850;DHT22;7517;48.400;11.770;2022-12-10T00:58:36;7.90;72.30
14850;DHT22;7517;48.400;11.770;2022-12-10T01:01:11;7.90;72.20
14850;DHT22;7517;48.400;11.770;2022-12-10T01:03:40;7.90;72.30
14850;DHT22;7517;48.400;11.770;2022-12-10T01:06:13;7.90;72.30
14850;DHT22;7517;48.400;11.770;2022-12-10T01:08:42;7.90;72.10
14850;DHT22;7517;48.400;11.770;2022-12-10T01:11:11;7.90;72.10
14850;DHT22;7517;48.400;11.770;2022-12-10T01:13:40;7.90;72.10
14850;DHT22;7517;48.400;11.770;2022-12-10T01:16:11;7.90;72.20
14850;DHT22;7517;48.400;11.770;2022-12-10T01:18:40;7.90;72.10
14850;DHT22;7517;48.400;11.770;2022-12-10T01:21:10;7.90;72.10
14850;DHT22;7517;48.400;11.770;2022-12-10T01:23:40;7.90;72.00
14850;DHT22;7517;48.400;11.770;2022-12-10T01:26:11;7.90;72.00
14850;DHT22;7517;48.400;11.770;2022-12-10T01:28:41;7.90;71.80
14850;DHT22;7517;48.400;11.770;2022-12-10T01:31:11;7.90;71.90
14850;DHT22;7517;48.400;11.770;2022-12-10T01:33:40;7.90;71.90
14850;DHT22;7517;48.400;11.770;2022-12-10T01:36:10;7.80;72.60
14850;DHT22;7517;48.400;11.770;2022-12-10T01:38:39;7.90;72.00
14850;DHT22;7517;48.400;11.770;2022-12-10T01:41:09;7.90;72.20
14850;DHT22;7517;48.400;11.770;2022-12-10T01:43:56;7.80;72.10
14850;DHT22;7517;48.400;11.770;2022-12-10T01:46:28;7.90;72.20
14850;DHT22;7517;48.400;11.770;2022-12-10T01:48:57;7.80;72.20
14850;DHT22;7517;48.400;11.770;2022-12-10T01:51:27;7.80;72.10
14850;DHT22;7517;48.400;11.770;2022-12-10T01:53:56;7.80;72.20
14850;DHT22;7517;48.400;11.770;2022-12-10T01:56:24;7.80;72.20
14850;DHT22;7517;48.400;11.770;2022-12-10T01:58:54;7.80;72.10
14850;DHT22;7517;48.400;11.770;2022-12-10T02:01:30;7.80;72.20
14850;DHT22;7517;48.400;11.770;2022-12-10T02:04:10;7.80;72.00
14850;DHT22;7517;48.400;11.770;2022-12-10T02:06:54;7.90;72.00
14850;DHT22;7517;48.400;11.770;2022-12-10T02:09:30;7.80;72.10
14850;DHT22;7517;48.400;11.770;2022-12-10T02:12:11;7.80;72.30
14850;DHT22;7517;48.400;11.770;2022-12-10T02:14:49;7.80;72.20
14850;DHT22;7517;48.400;11.770;2022-12-10T02:17:25;7.80;72.10
14850;DHT22;7517;48.400;11.770;2022-12-10T02:20:04;7.80;72.10
14850;DHT22;7517;48.400;11.770;2022-12-10T02:22:36;7.80;72.10
14850;DHT22;7517;48.400;11.770;2022-12-10T02:25:08;7.70;72.00
14850;DHT22;7517;48.400;11.770;2022-12-10T02:27:45;7.70;72.70
14850;DHT22;7517;48.400;11.770;2022-12-10T02:30:17;7.70;72.10
14850;DHT22;7517;48.400;11.770;2022-12-10T02:32:46;7.70;72.20
14850;DHT22;7517;48.400;11.770;2022-12-10T02:35:19;7.70;72.40
14850;DHT22;7517;48.400;11.770;2022-12-10T02:37:53;7.70;72.60
14850;DHT22;7517;48.400;11.770;2022-12-10T02:40:25;7.70;72.60
14850;DHT22;7517;48.400;11.770;2022-12-10T02:42:57;7.70;72.60
14850;DHT22;7517;48.400;11.770;2022-12-10T02:45:27;7.70;72.60
14850;DHT22;7517;48.400;11.770;2022-12-10T02:47:59;7.60;72.60
14850;DHT22;7517;48.400;11.770;2022-12-10T02:50:27;7.60;72.80
14850;DHT22;7517;48.400;11.770;2022-12-10T02:52:55;7.60;72.80
14850;DHT22;7517;48.400;11.770;2022-12-10T02:55:22;7.60;72.90
14850;DHT22;7517;48.400;11.770;2022-12-10T02:58:05;7.60;72.90
14850;DHT22;7517;48.400;11.770;2022-12-10T03:00:49;7.60;72.80
14850;DHT22;7517;48.400;11.770;2022-12-10T03:03:32;7.60;72.70
14850;DHT22;7517;48.400;11.770;2022-12-10T03:06:09;7.60;72.80
14850;DHT22;7517;48.400;11.770;2022-12-10T03:08:47;7.60;72.80
14850;DHT22;7517;48.400;11.770;2022-12-10T03:11:18;7.60;72.90
14850;DHT22;7517;48.400;11.770;2022-12-10T03:13:51;7.60;73.00
14850;DHT22;7517;48.400;11.770;2022-12-10T03:16:24;7.60;73.10
14850;DHT22;7517;48.400;11.770;2022-12-10T03:18:58;7.50;73.10
14850;DHT22;7517;48.400;11.770;2022-12-10T03:21:30;7.50;73.10
14850;DHT22;7517;48.400;11.770;2022-12-10T03:24:00;7.50;73.20
14850;DHT22;7517;48.400;11.770;2022-12-10T03:26:29;7.50;73.20
14850;DHT22;7517;48.400;11.770;2022-12-10T03:29:00;7.50;73.20
14850;DHT22;7517;48.400;11.770;2022-12-10T03:31:34;7.50;73.20
14850;DHT22;7517;48.400;11.770;2022-12-10T03:34:02;7.50;73.30
14850;DHT22;7517;48.400;11.770;2022-12-10T03:36:32;7.50;73.30
14850;DHT22;7517;48.400;11.770;2022-12-10T03:39:00;7.40;73.30
14850;DHT22;7517;48.400;11.770;2022-12-10T03:41:28;7.40;73.30
14850;DHT22;7517;48.400;11.770;2022-12-10T03:43:57;7.40;73.50
14850;DHT22;7517;48.400;11.770;2022-12-10T03:46:27;7.40;73.50
14850;DHT22;7517;48.400;11.770;2022-12-10T03:48:58;7.40;74.20
14850;DHT22;7517;48.400;11.770;2022-12-10T03:51:26;7.40;73.50
14850;DHT22;7517;48.400;11.770;2022-12-10T03:53:54;7.40;73.50
14850;DHT22;7517;48.400;11.770;2022-12-10T03:56:21;7.40;73.50
14850;DHT22;7517;48.400;11.770;2022-12-10T03:58:49;7.40;73.60
14850;DHT22;7517;48.400;11.770;2022-12-10T04:01:16;7.50;73.90
14850;DHT22;7517;48.400;11.770;2022-12-10T04:03:44;7.40;73.50
14850;DHT22;7517;48.400;11.770;2022-12-10T04:06:14;7.40;73.80
14850;DHT22;7517;48.400;11.770;2022-12-10T04:08:44;7.40;73.70
14850;DHT22;7517;48.400;11.770;2022-12-10T04:11:13;7.40;73.90
14850;DHT22;7517;48.400;11.770;2022-12-10T04:13:42;7.40;73.90
14850;DHT22;7517;48.400;11.770;2022-12-10T04:16:27;7.50;73.80
14850;DHT22;7517;48.400;11.770;2022-12-10T04:18:59;7.50;73.70
14850;DHT22;7517;48.400;11.770;2022-12-10T04:21:30;7.50;73.70
14850;DHT22;7517;48.400;11.770;2022-12-10T04:24:18;7.50;74.40
14850;DHT22;7517;48.400;11.770;2022-12-10T04:27:07;7.50;73.60
14850;DHT22;7517;48.400;11.770;2022-12-10T04:29:36;7.50;73.60
14850;DHT22;7517;48.400;11.770;2022-12-10T04:32:04;7.40;73.70
14850;DHT22;7517;48.400;11.770;2022-12-10T04:34:32;7.40;73.80
14850;DHT22;7517;48.400;11.770;2022-12-10T04:37:02;7.40;73.80
14850;DHT22;7517;48.400;11.770;2022-12-10T04:39:29;7.40;73.80
14850;DHT22;7517;48.400;11.770;2022-12-10T04:41:57;7.40;73.80
14850;DHT22;7517;48.400;11.770;2022-12-10T04:44:25;7.40;73.60
14850;DHT22;7517;48.400;11.770;2022-12-10T04:46:53;7.40;73.70
14850;DHT22;7517;48.400;11.770;2022-12-10T04:49:21;7.40;73.70
14850;DHT22;7517;48.400;11.770;2022-12-10T04:51:49;7.40;73.70
14850;DHT22;7517;48.400;11.770;2022-12-10T04:54:19;7.40;73.80
14850;DHT22;7517;48.400;11.770;2022-12-10T04:56:47;7.40;73.80
14850;DHT22;7517;48.400;11.770;2022-12-10T04:59:14;7.40;73.80
14850;DHT22;7517;48.400;11.770;2022-12-10T05:01:44;7.40;73.80
14850;DHT22;7517;48.400;11.770;2022-12-10T05:04:14;7.40;73.50
14850;DHT22;7517;48.400;11.770;2022-12-10T05:06:42;7.40;73.40
14850;DHT22;7517;48.400;11.770;2022-12-10T05:09:10;7.40;73.30
14850;DHT22;7517;48.400;11.770;2022-12-10T05:11:39;7.40;73.40
14850;DHT22;7517;48.400;11.770;2022-12-10T05:14:09;7.30;73.30
14850;DHT22;7517;48.400;11.770;2022-12-10T05:16:37;7.40;73.50
14850;DHT22;7517;48.400;11.770;2022-12-10T05:19:04;7.40;73.50
14850;DHT22;7517;48.400;11.770;2022-12-10T05:21:31;7.40;73.50
14850;DHT22;7517;48.400;11.770;2022-12-10T05:24:13;7.40;73.50
14850;DHT22;7517;48.400;11.770;2022-12-10T05:26:42;7.40;73.60
14850;DHT22;7517;48.400;11.770;2022-12-10T05:29:09;7.40;73.70
14850;DHT22;7517;48.400;11.770;2022-12-10T05:31:38;7.40;73.60
14850;DHT22;7517;48.400;11.770;2022-12-10T05:34:05;7.40;73.60
14850;DHT22;7517;48.400;11.770;2022-12-10T05:36:33;7.40;73.80
14850;DHT22;7517;48.400;11.770;2022-12-10T05:39:00;7.40;73.90
14850;DHT22;7517;48.400;11.770;2022-12-10T05:41:30;7.40;73.90
14850;DHT22;7517;48.400;11.770;2022-12-10T05:44:00;7.40;74.00
14850;DHT22;7517;48.400;11.770;2022-12-10T05:46:28;7.40;74.10
14850;DHT22;7517;48.400;11.770;2022-12-10T05:48:57;7.40;74.00
14850;DHT22;7517;48.400;11.770;2022-12-10T05:51:28;7.40;74.70
14850;DHT22;7517;48.400;11.770;2022-12-10T05:53:58;7.40;74.00
14850;DHT22;7517;48.400;11.770;2022-12-10T05:56:27;7.40;74.00
14850;DHT22;7517;48.400;11.770;2022-12-10T05:58:57;7.40;74.00
14850;DHT22;7517;48.400;11.770;2022-12-10T06:01:29;7.40;74.10
14850;DHT22;7517;48.400;11.770;2022-12-10T06:03:59;7.40;74.10
14850;DHT22;7517;48.400;11.770;2022-12-10T06:06:28;7.40;74.10
14850;DHT22;7517;48.400;11.770;2022-12-10T06:08:57;7.50;74.20
14850;DHT22;7517;48.400;11.770;2022-12-10T06:11:25;7.40;74.00
14850;DHT22;7517;48.400;11.770;2022-12-10T06:13:54;7.40;74.10
14850;DHT22;7517;48.400;11.770;2022-12-10T06:16:24;7.40;73.90
14850;DHT22;7517;48.400;11.770;2022-12-10T06:18:54;7.50;74.00
14850;DHT22;7517;48.400;11.770;2022-12-10T06:21:22;7.50;74.10
14850;DHT22;7517;48.400;11.770;2022-12-10T06:23:50;7.40;74.00
14850;DHT22;7517;48.400;11.770;2022-12-10T06:26:19;7.40;73.90
14850;DHT22;7517;48.400;11.770;2022-12-10T06:28:48;7.50;73.90
14850;DHT22;7517;48.400;11.770;2022-12-10T06:31:16;7.50;74.00
14850;DHT22;7517;48.400;11.770;2022-12-10T06:33:44;7.50;74.00
14850;DHT22;7517;48.400;11.770;2022-12-10T06:36:16;7.50;73.90
14850;DHT22;7517;48.400;11.770;2022-12-10T06:38:45;7.50;73.90
14850;DHT22;7517;48.400;11.770;2022-12-10T06:41:14;7.40;73.90
14850;DHT22;7517;48.400;11.770;2022-12-10T06:43:42;7.50;74.00
14850;DHT22;7517;48.400;11.770;2022-12-10T06:46:12;7.40;73.80
14850;DHT22;7517;48.400;11.770;2022-12-10T06:48:40;7.50;73.80
14850;DHT22;7517;48.400;11.770;2022-12-10T06:51:09;7.50;73.70
14850;DHT22;7517;48.400;11.770;2022-12-10T06:53:40;7.50;73.80
14850;DHT22;7517;48.400;11.770;2022-12-10T06:56:11;7.40;73.80
14850;DHT22;7517;48.400;11.770;2022-12-10T06:58:40;7.50;73.90
14850;DHT22;7517;48.400;11.770;2022-12-10T07:01:10;7.40;73.90
14850;DHT22;7517;48.400;11.770;2022-12-10T07:03:39;7.40;74.00
14850;DHT22;7517;48.400;11.770;2022-12-10T07:06:08;7.40;74.10
14850;DHT22;7517;48.400;11.770;2022-12-10T07:08:37;7.40;74.00
14850;DHT22;7517;48.400;11.770;2022-12-10T07:11:06;7.50;74.00
14850;DHT22;7517;48.400;11.770;2022-12-10T07:13:35;7.50;74.70
14850;DHT22;7517;48.400;11.770;2022-12-10T07:16:03;7.50;74.00
14850;DHT22;7517;48.400;11.770;2022-12-10T07:18:38;7.50;74.10
14850;DHT22;7517;48.400;11.770;2022-12-10T07:21:13;7.50;74.00
14850;DHT22;7517;48.400;11.770;2022-12-10T07:23:42;7.50;73.90
14850;DHT22;7517;48.400;11.770;2022-12-10T07:26:10;7.50;74.00
14850;DHT22;7517;48.400;11.770;2022-12-10T07:28:37;7.50;74.00
14850;DHT22;7517;48.400;11.770;2022-12-10T07:31:06;7.50;73.90
14850;DHT22;7517;48.400;11.770;2022-12-10T07:33:35;7.50;73.70
14850;DHT22;7517;48.400;11.770;2022-12-10T07:36:04;7.50;73.80
14850;DHT22;7517;48.400;11.770;2022-12-10T07:38:32;7.50;73.80
14850;DHT22;7517;48.400;11.770;2022-12-10T07:41:03;7.50;73.60
14850;DHT22;7517;48.400;11.770;2022-12-10T07:43:33;7.50;73.50
14850;DHT22;7517;48.400;11.770;2022-12-10T07:46:05;7.60;73.80
14850;DHT22;7517;48.400;11.770;2022-12-10T07:48:34;7.60;73.80
14850;DHT22;7517;48.400;11.770;2022-12-10T07:51:03;7.60;73.70
14850;DHT22;7517;48.400;11.770;2022-12-10T07:53:31;7.60;73.70
14850;DHT22;7517;48.400;11.770;2022-12-10T07:55:58;7.60;73.60
14850;DHT22;7517;48.400;11.770;2022-12-10T07:58:27;7.70;73.50
14850;DHT22;7517;48.400;11.770;2022-12-10T08:00:54;7.70;73.50
14850;DHT22;7517;48.400;11.770;2022-12-10T08:03:21;7.70;73.50
14850;DHT22;7517;48.400;11.770;2022-12-10T08:05:49;7.80;73.50
14850;DHT22;7517;48.400;11.770;2022-12-10T08:08:27;7.80;73.50
14850;DHT22;7517;48.400;11.770;2022-12-10T08:10:54;7.80;73.40
14850;DHT22;7517;48.400;11.770;2022-12-10T08:13:21;7.80;73.40
14850;DHT22;7517;48.400;11.770;2022-12-10T08:15:50;7.80;73.60
14850;DHT22;7517;48.400;11.770;2022-12-10T08:18:17;7.80;73.20
14850;DHT22;7517;48.400;11.770;2022-12-10T08:20:44;7.80;73.10
14850;DHT22;7517;48.400;11.770;2022-12-10T08:23:12;7.90;73.10
14850;DHT22;7517;48.400;11.770;2022-12-10T08:25:39;7.90;73.00
14850;DHT22;7517;48.400;11.770;2022-12-10T08:28:09;7.90;73.00
14850;DHT22;7517;48.400;11.770;2022-12-10T08:30:36;7.90;73.10
14850;DHT22;7517;48.400;11.770;2022-12-10T08:33:04;7.80;72.90
14850;DHT22;7517;48.400;11.770;2022-12-10T08:35:32;7.90;72.80
14850;DHT22;7517;48.400;11.770;2022-12-10T08:37:59;7.90;72.90
14850;DHT22;7517;48.400;11.770;2022-12-10T08:40:26;7.90;72.80
14850;DHT22;7517;48.400;11.770;2022-12-10T08:42:54;7.90;72.70
14850;DHT22;7517;48.400;11.770;2022-12-10T08:45:21;7.90;72.70
14850;DHT22;7517;48.400;11.770;2022-12-10T08:47:48;7.90;72.60
14850;DHT22;7517;48.400;11.770;2022-12-10T08:50:16;7.90;72.60
14850;DHT22;7517;48.400;11.770;2022-12-10T08:52:44;7.90;72.80
14850;DHT22;7517;48.400;11.770;2022-12-10T08:55:11;7.90;73.00
14850;DHT22;7517;48.400;11.770;2022-12-10T08:57:38;7.90;73.00
14850;DHT22;7517;48.400;11.770;2022-12-10T09:00:07;7.90;73.00
14850;DHT22;7517;48.400;11.770;2022-12-10T09:02:35;7.90;73.10
14850;DHT22;7517;48.400;11.770;2022-12-10T09:05:02;7.90;73.10
14850;DHT22;7517;48.400;11.770;2022-12-10T09:07:31;7.90;73.10
14850;DHT22;7517;48.400;11.770;2022-12-10T09:09:59;7.90;73.20
14850;DHT22;7517;48.400;11.770;2022-12-10T09:12:26;7.90;73.70
14850;DHT22;7517;48.400;11.770;2022-12-10T09:14:53;8.00;73.10
14850;DHT22;7517;48.400;11.770;2022-12-10T09:17:21;8.00;73.10
14850;DHT22;7517;48.400;11.770;2022-12-10T09:19:49;8.00;73.10
14850;DHT22;7517;48.400;11.770;2022-12-10T09:22:16;8.00;73.10
14850;DHT22;7517;48.400;11.770;2022-12-10T09:24:44;8.00;72.90
14850;DHT22;7517;48.400;11.770;2022-12-10T09:27:11;8.00;72.80
14850;DHT22;7517;48.400;11.770;2022-12-10T09:29:39;8.00;72.60
14850;DHT22;7517;48.400;11.770;2022-12-10T09:32:06;8.00;72.50
14850;DHT22;7517;48.400;11.770;2022-12-10T09:34:33;8.00;72.60
14850;DHT22;7517;48.400;11.770;2022-12-10T09:37:00;8.00;72.70
14850;DHT22;7517;48.400;11.770;2022-12-10T09:39:27;8.00;72.70
14850;DHT22;7517;48.400;11.770;2022-12-10T09:42:09;8.00;72.60
14850;DHT22;7517;48.400;11.770;2022-12-10T09:44:57;8.00;72.50
14850;DHT22;7517;48.400;11.770;2022-12-10T09:47:35;8.00;72.60
14850;DHT22;7517;48.400;11.770;2022-12-10T09:50:16;8.00;72.50
14850;DHT22;7517;48.400;11.770;2022-12-10T09:52:48;8.00;72.30
14850;DHT22;7517;48.400;11.770;2022-12-10T09:55:19;8.00;72.20
14850;DHT22;7517;48.400;11.770;2022-12-10T09:57:51;8.00;71.90
14850;DHT22;7517;48.400;11.770;2022-12-10T10:00:23;8.00;71.90
14850;DHT22;7517;48.400;11.770;2022-12-10T10:02:57;8.00;72.20
14850;DHT22;7517;48.400;11.770;2022-12-10T10:05:27;8.00;72.20
14850;DHT22;7517;48.400;11.770;2022-12-10T10:07:59;8.00;72.00
14850;DHT22;7517;48.400;11.770;2022-12-10T10:10:30;8.00;71.80
14850;DHT22;7517;48.400;11.770;2022-12-10T10:13:13;8.00;71.80
14850;DHT22;7517;48.400;11.770;2022-12-10T10:15:50;8.00;71.80
14850;DHT22;7517;48.400;11.770;2022-12-10T10:18:25;8.00;72.20
14850;DHT22;7517;48.400;11.770;2022-12-10T10:20:58;8.00;72.30
14850;DHT22;7517;48.400;11.770;2022-12-10T10:23:26;8.00;72.30
14850;DHT22;7517;48.400;11.770;2022-12-10T10:25:53;8.00;72.10
14850;DHT22;7517;48.400;11.770;2022-12-10T10:28:23;8.00;72.10
14850;DHT22;7517;48.400;11.770;2022-12-10T10:30:52;7.90;72.00
14850;DHT22;7517;48.400;11.770;2022-12-10T10:33:20;7.90;72.00
14850;DHT22;7517;48.400;11.770;2022-12-10T10:35:50;7.90;72.00
14850;DHT22;7517;48.400;11.770;2022-12-10T10:38:24;7.90;71.90
14850;DHT22;7517;48.400;11.770;2022-12-10T10:40:55;7.90;72.00
14850;DHT22;7517;48.400;11.770;2022-12-10T10:43:26;8.00;72.00
14850;DHT22;7517;48.400;11.770;2022-12-10T10:46:00;7.90;71.90
14850;DHT22;7517;48.400;11.770;2022-12-10T10:48:31;7.90;72.00
14850;DHT22;7517;48.400;11.770;2022-12-10T10:51:06;7.90;72.10
14850;DHT22;7517;48.400;11.770;2022-12-10T10:53:41;7.90;72.10
14850;DHT22;7517;48.400;11.770;2022-12-10T10:56:13;7.90;72.20
14850;DHT22;7517;48.400;11.770;2022-12-10T10:59:02;8.00;72.30
14850;DHT22;7517;48.400;11.770;2022-12-10T11:01:45;8.00;72.00
14850;DHT22;7517;48.400;11.770;2022-12-10T11:04:16;8.00;72.80
14850;DHT22;7517;48.400;11.770;2022-12-10T11:06:50;7.90;72.10
14850;DHT22;7517;48.400;11.770;2022-12-10T11:09:27;8.00;72.10
14850;DHT22;7517;48.400;11.770;2022-12-10T11:11:59;8.10;71.90
14850;DHT22;7517;48.400;11.770;2022-12-10T11:14:32;8.00;71.70
14850;DHT22;7517;48.400;11.770;2022-12-10T11:17:17;8.00;71.80
14850;DHT22;7517;48.400;11.770;2022-12-10T11:19:54;8.00;71.70
14850;DHT22;7517;48.400;11.770;2022-12-10T11:22:25;8.00;71.80
14850;DHT22;7517;48.400;11.770;2022-12-10T11:24:54;8.00;71.90
14850;DHT22;7517;48.400;11.770;2022-12-10T11:27:33;8.00;71.90
14850;DHT22;7517;48.400;11.770;2022-12-10T11:30:16;8.00;72.00
14850;DHT22;7517;48.400;11.770;2022-12-10T11:33:03;8.00;71.90
14850;DHT22;7517;48.400;11.770;2022-12-10T11:35:50;8.00;71.70
14850;DHT22;7517;48.400;11.770;2022-12-10T11:38:28;8.00;71.90
14850;DHT22;7517;48.400;11.770;2022-12-10T11:41:11;8.00;72.00
14850;DHT22;7517;48.400;11.770;2022-12-10T11:44:00;8.00;72.00
14850;DHT22;7517;48.400;11.770;2022-12-10T11:47:11;8.10;72.10
14850;DHT22;7517;48.400;11.770;2022-12-10T11:50:04;8.00;72.00
14850;DHT22;7517;48.400;11.770;2022-12-10T11:52:53;8.00;72.00
14850;DHT22;7517;48.400;11.770;2022-12-10T11:55:39;7.90;71.80
14850;DHT22;7517;48.400;11.770;2022-12-10T11:58:48;7.90;72.00
14850;DHT22;7517;48.400;11.770;2022-12-10T12:01:36;7.90;72.10
14850;DHT22;7517;48.400;11.770;2022-12-10T12:04:25;7.90;72.10
14850;DHT22;7517;48.400;11.770;2022-12-10T12:07:19;7.90;72.20
14850;DHT22;7517;48.400;11.770;2022-12-10T12:10:23;7.90;72.30
14850;DHT22;7517;48.400;11.770;2022-12-10T12:13:22;7.90;72.50
14850;DHT22;7517;48.400;11.770;2022-12-10T12:15:55;7.90;72.60
14850;DHT22;7517;48.400;11.770;2022-12-10T12:18:34;7.90;72.60
14850;DHT22;7517;48.400;11.770;2022-12-10T12:21:11;7.90;72.70
14850;DHT22;7517;48.400;11.770;2022-12-10T12:23:46;7.80;72.60
14850;DHT22;7517;48.400;11.770;2022-12-10T12:26:23;7.90;72.40
14850;DHT22;7517;48.400;11.770;2022-12-10T12:28:58;7.90;72.20
14850;DHT22;7517;48.400;11.770;2022-12-10T12:31:36;7.90;72.20
14850;DHT22;7517;48.400;11.770;2022-12-10T12:34:13;7.90;72.50
14850;DHT22;7517;48.400;11.770;2022-12-10T12:36:46;7.90;72.70
14850;DHT22;7517;48.400;11.770;2022-12-10T12:39:23;7.90;72.80
14850;DHT22;7517;48.400;11.770;2022-12-10T12:41:59;8.00;73.00
14850;DHT22;7517;48.400;11.770;2022-12-10T12:44:47;8.10;73.00
14850;DHT22;7517;48.400;11.770;2022-12-10T12:47:34;8.00;73.00
14850;DHT22;7517;48.400;11.770;2022-12-10T12:50:25;8.00;72.90
14850;DHT22;7517;48.400;11.770;2022-12-10T12:52:59;8.00;72.90
14850;DHT22;7517;48.400;11.770;2022-12-10T12:55:31;8.00;73.00
14850;DHT22;7517;48.400;11.770;2022-12-10T12:58:15;8.10;73.20
14850;DHT22;7517;48.400;11.770;2022-12-10T13:00:57;8.00;72.90
14850;DHT22;7517;48.400;11.770;2022-12-10T13:03:34;8.10;72.80
14850;DHT22;7517;48.400;11.770;2022-12-10T13:06:13;8.10;72.80
14850;DHT22;7517;48.400;11.770;2022-12-10T13:08:45;8.10;72.80
14850;DHT22;7517;48.400;11.770;2022-12-10T13:11:34;8.10;72.80
14850;DHT22;7517;48.400;11.770;2022-12-10T13:17:30;8.20;72.90
14850;DHT22;7517;48.400;11.770;2022-12-10T13:20:32;8.20;72.40
14850;DHT22;7517;48.400;11.770;2022-12-10T13:23:02;8.20;72.20
14850;DHT22;7517;48.400;11.770;2022-12-10T13:25:54;8.20;72.40
14850;DHT22;7517;48.400;11.770;2022-12-10T13:28:29;8.10;72.50
14850;DHT22;7517;48.400;11.770;2022-12-10T13:31:34;8.10;72.50
14850;DHT22;7517;48.400;11.770;2022-12-10T13:34:21;8.10;72.50
14850;DHT22;7517;48.400;11.770;2022-12-10T13:40:13;8.10;72.40
14850;DHT22;7517;48.400;11.770;2022-12-10T13:42:45;8.00;72.30
14850;DHT22;7517;48.400;11.770;2022-12-10T13:45:33;8.00;72.50
14850;DHT22;7517;48.400;11.770;2022-12-10T13:48:32;8.00;72.70
14850;DHT22;7517;48.400;11.770;2022-12-10T13:51:36;8.00;72.30
14850;DHT22;7517;48.400;11.770;2022-12-10T13:54:29;7.90;72.00
14850;DHT22;7517;48.400;11.770;2022-12-10T13:57:20;7.90;72.30
14850;DHT22;7517;48.400;11.770;2022-12-10T14:00:06;7.80;72.50
14850;DHT22;7517;48.400;11.770;2022-12-10T14:05:59;7.80;72.90
14850;DHT22;7517;48.400;11.770;2022-12-10T14:08:40;7.70;72.80
14850;DHT22;7517;48.400;11.770;2022-12-10T14:11:17;7.70;72.80
14850;DHT22;7517;48.400;11.770;2022-12-10T14:13:51;7.70;72.90
14850;DHT22;7517;48.400;11.770;2022-12-10T14:16:27;7.60;72.90
14850;DHT22;7517;48.400;11.770;2022-12-10T14:18:59;7.60;73.00
14850;DHT22;7517;48.400;11.770;2022-12-10T14:21:33;7.60;73.00
14850;DHT22;7517;48.400;11.770;2022-12-10T14:24:03;7.60;73.00
14850;DHT22;7517;48.400;11.770;2022-12-10T14:26:32;7.60;73.00
14850;DHT22;7517;48.400;11.770;2022-12-10T14:29:16;7.50;73.20
14850;DHT22;7517;48.400;11.770;2022-12-10T14:31:49;7.50;73.30
14850;DHT22;7517;48.400;11.770;2022-12-10T14:34:20;7.50;73.40
14850;DHT22;7517;48.400;11.770;2022-12-10T14:36:52;7.50;73.50
14850;DHT22;7517;48.400;11.770;2022-12-10T14:39:25;7.50;73.50
14850;DHT22;7517;48.400;11.770;2022-12-10T14:41:56;7.50;73.50
14850;DHT22;7517;48.400;11.770;2022-12-10T14:44:26;7.50;73.50
14850;DHT22;7517;48.400;11.770;2022-12-10T14:47:06;7.50;73.50
14850;DHT22;7517;48.400;11.770;2022-12-10T14:49:41;7.50;73.70
14850;DHT22;7517;48.400;11.770;2022-12-10T14:52:12;7.50;73.90
14850;DHT22;7517;48.400;11.770;2022-12-10T14:54:41;7.50;74.00
14850;DHT22;7517;48.400;11.770;2022-12-10T14:57:15;7.50;74.10
14850;DHT22;7517;48.400;11.770;2022-12-10T14:59:49;7.50;74.10
14850;DHT22;7517;48.400;11.770;2022-12-10T15:02:26;7.40;74.00
14850;DHT22;7517;48.400;11.770;2022-12-10T15:04:56;7.50;74.20
14850;DHT22;7517;48.400;11.770;2022-12-10T15:07:26;7.50;74.20
14850;DHT22;7517;48.400;11.770;2022-12-10T15:10:03;7.50;74.40
14850;DHT22;7517;48.400;11.770;2022-12-10T15:12:38;7.40;74.40
14850;DHT22;7517;48.400;11.770;2022-12-10T15:15:14;7.40;74.30
14850;DHT22;7517;48.400;11.770;2022-12-10T15:17:54;7.50;74.40
14850;DHT22;7517;48.400;11.770;2022-12-10T15:20:26;7.40;74.90
14850;DHT22;7517;48.400;11.770;2022-12-10T15:23:08;7.50;74.10
14850;DHT22;7517;48.400;11.770;2022-12-10T15:25:45;7.50;74.20
14850;DHT22;7517;48.400;11.770;2022-12-10T15:28:26;7.50;74.10
14850;DHT22;7517;48.400;11.770;2022-12-10T15:30:56;7.50;74.00
14850;DHT22;7517;48.400;11.770;2022-12-10T15:33:34;7.50;73.90
14850;DHT22;7517;48.400;11.770;2022-12-10T15:36:04;7.40;73.80
14850;DHT22;7517;48.400;11.770;2022-12-10T15:38:33;7.40;73.70
14850;DHT22;7517;48.400;11.770;2022-12-10T15:41:24;7.40;73.80
14850;DHT22;7517;48.400;11.770;2022-12-10T15:44:05;7.40;74.00
14850;DHT22;7517;48.400;11.770;2022-12-10T15:46:49;7.30;74.00
14850;DHT22;7517;48.400;11.770;2022-12-10T15:49:18;7.30;74.10
14850;DHT22;7517;48.400;11.770;2022-12-10T15:51:45;7.30;74.10
14850;DHT22;7517;48.400;11.770;2022-12-10T15:54:19;7.30;73.90
14850;DHT22;7517;48.400;11.770;2022-12-10T15:56:48;7.20;73.80
14850;DHT22;7517;48.400;11.770;2022-12-10T15:59:15;7.20;73.80
14850;DHT22;7517;48.400;11.770;2022-12-10T16:01:42;7.20;73.70
14850;DHT22;7517;48.400;11.770;2022-12-10T16:04:09;7.10;73.60
14850;DHT22;7517;48.400;11.770;2022-12-10T16:06:38;7.10;73.80
14850;DHT22;7517;48.400;11.770;2022-12-10T16:09:06;7.00;73.90
14850;DHT22;7517;48.400;11.770;2022-12-10T16:11:34;7.00;74.00
14850;DHT22;7517;48.400;11.770;2022-12-10T16:14:02;6.90;74.10
14850;DHT22;7517;48.400;11.770;2022-12-10T16:16:32;6.90;74.00
14850;DHT22;7517;48.400;11.770;2022-12-10T16:18:59;6.90;74.00
14850;DHT22;7517;48.400;11.770;2022-12-10T16:21:26;6.90;74.10
14850;DHT22;7517;48.400;11.770;2022-12-10T16:23:54;6.90;74.10
14850;DHT22;7517;48.400;11.770;2022-12-10T16:26:22;6.80;74.40
14850;DHT22;7517;48.400;11.770;2022-12-10T16:28:50;6.80;74.40
14850;DHT22;7517;48.400;11.770;2022-12-10T16:31:19;6.80;74.40